Time;durP1;ratioP1;P1;durP2;ratioP2;P2;SDS_P1;SDS_P2;PMS_P1;PMS_P2;Temp;Humidity;BMP_temperature;BMP_pressure;BME280_temperature;BME280_humidity;BME280_pressure;Samples;Min_cycle;Max_cycle;Signal;HPM_P1;HPM_P2
2021/06/26 00:01:16;;;;;;;6.55;4.57;;;;;;;29.31;39.53;99491.22;4484919;32;33911;-70
2021/06/26 00:03:43;;;;;;;6.00;4.85;;;;;;;29.29;39.69;99487.94;4484535;32;33794;-71
2021/06/26 00:06:11;;;;;;;6.37;4.95;;;;;;;29.29;39.68;99485.19;4484340;32;33972;-70
2021/06/26 00:08:39;;;;;;;5.50;4.35;;;;;;;29.27;39.71;99490.13;4483274;32;34289;-71
2021/06/26 00:11:06;;;;;;;6.60;4.93;;;;;;;29.23;39.85;99501.62;4484376;32;34256;-69
2021/06/26 00:13:34;;;;;;;5.68;4.47;;;;;;;29.24;39.66;99505.25;4484754;32;33833;-70
2021/06/26 00:16:03;;;;;;;7.78;4.82;;;;;;;29.23;39.74;99504.38;4484460;32;33950;-71
2021/06/26 00:18:31;;;;;;;7.60;4.60;;;;;;;29.25;39.59;99508.81;4484230;32;34603;-69
2021/06/26 00:20:58;;;;;;;6.55;5.00;;;;;;;29.22;39.75;99508.25;4484444;31;33277;-70
2021/06/26 00:23:26;;;;;;;8.25;4.65;;;;;;;29.19;39.28;99510.69;4484492;32;34752;-69
2021/06/26 00:26:08;;;;;;;7.10;4.82;;;;;;;29.18;39.64;99514.53;4483852;32;33810;-70
2021/06/26 00:28:36;;;;;;;6.07;4.45;;;;;;;29.19;39.65;99514.28;4483093;32;33785;-70
2021/06/26 00:31:03;;;;;;;8.82;5.25;;;;;;;29.17;39.50;99508.22;4484255;32;34187;-67
2021/06/26 00:33:31;;;;;;;7.10;5.20;;;;;;;29.15;39.84;99513.19;4484299;31;33718;-69
2021/06/26 00:35:59;;;;;;;8.50;5.22;;;;;;;29.16;39.81;99511.25;4484260;32;33939;-71
2021/06/26 00:38:26;;;;;;;6.95;5.50;;;;;;;29.14;39.49;99511.50;4484152;32;34082;-70
2021/06/26 00:40:54;;;;;;;6.90;4.97;;;;;;;29.12;39.87;99521.97;4484386;32;34453;-69
2021/06/26 00:43:22;;;;;;;8.63;5.50;;;;;;;29.11;39.70;99530.47;4484141;32;34926;-70
2021/06/26 00:45:49;;;;;;;6.72;5.00;;;;;;;29.09;39.84;99533.47;4484205;32;33724;-69
2021/06/26 00:48:17;;;;;;;7.87;5.15;;;;;;;29.10;39.67;99540.66;4484225;32;33717;-70
2021/06/26 00:50:45;;;;;;;6.20;4.68;;;;;;;29.10;39.79;99537.06;4484631;32;34049;-69
2021/06/26 00:53:12;;;;;;;6.55;4.95;;;;;;;29.05;39.99;99534.28;4484167;32;33814;-69
2021/06/26 00:55:40;;;;;;;7.12;5.37;;;;;;;29.07;39.86;99532.12;4484213;32;33924;-67
2021/06/26 00:58:07;;;;;;;6.80;4.93;;;;;;;29.03;39.72;99537.31;4482955;32;33491;-69
2021/06/26 01:00:35;;;;;;;6.12;5.07;;;;;;;29.03;39.72;99531.81;4483913;32;33274;-69
2021/06/26 01:03:06;;;;;;;7.93;5.57;;;;;;;29.04;39.81;99533.47;4484140;32;33600;-70
2021/06/26 01:05:33;;;;;;;7.22;5.15;;;;;;;29.04;39.70;99527.97;4484222;32;34821;-69
2021/06/26 01:08:01;;;;;;;6.32;4.82;;;;;;;29.01;39.77;99533.22;4483982;32;34527;-69
2021/06/26 01:10:28;;;;;;;7.03;5.35;;;;;;;29.00;40.01;99532.34;4482940;32;32943;-70
2021/06/26 01:12:57;;;;;;;7.07;5.28;;;;;;;28.97;39.94;99535.66;4484136;32;33833;-67
2021/06/26 01:15:25;;;;;;;6.40;5.35;;;;;;;28.97;40.42;99532.91;4482556;32;33851;-70
2021/06/26 01:17:53;;;;;;;7.53;5.32;;;;;;;28.96;40.21;99526.59;4483917;32;33531;-70
2021/06/26 01:20:20;;;;;;;10.20;5.72;;;;;;;28.92;39.89;99524.62;4484027;32;33124;-70
2021/06/26 01:22:54;;;;;;;14.63;5.50;;;;;;;28.94;40.08;99516.94;4483920;31;33462;-70
2021/06/26 01:25:23;;;;;;;20.48;5.85;;;;;;;28.96;40.24;99523.84;4484032;32;34807;-70
2021/06/26 01:27:50;;;;;;;17.95;5.82;;;;;;;28.97;40.17;99525.50;4482936;32;33995;-68
2021/06/26 01:30:24;;;;;;;10.63;5.57;;;;;;;28.97;40.12;99522.75;4484197;32;34431;-71
2021/06/26 01:32:55;;;;;;;9.40;5.65;;;;;;;29.01;40.19;99530.47;4484036;32;34538;-69
2021/06/26 01:35:22;;;;;;;8.55;5.30;;;;;;;29.01;40.22;99522.22;4483551;31;34954;-69
2021/06/26 01:37:51;;;;;;;10.15;5.00;;;;;;;29.04;40.20;99519.72;4481455;32;34668;-70
2021/06/26 01:40:22;;;;;;;12.75;5.15;;;;;;;29.07;40.27;99532.12;4483885;32;33397;-71
2021/06/26 01:42:49;;;;;;;6.90;5.70;;;;;;;29.08;40.30;99531.00;4483726;32;33655;-70
2021/06/26 01:45:17;;;;;;;11.20;5.55;;;;;;;29.10;40.32;99528.81;4483717;32;34077;-70
2021/06/26 01:47:49;;;;;;;11.05;5.85;;;;;;;29.13;40.32;99525.53;4483611;32;33492;-71
2021/06/26 01:50:17;;;;;;;7.32;5.55;;;;;;;29.14;40.38;99533.50;4483738;32;34255;-71
2021/06/26 01:52:45;;;;;;;9.18;5.80;;;;;;;29.17;40.39;99541.19;4483547;32;33874;-69
2021/06/26 01:55:13;;;;;;;7.35;5.45;;;;;;;29.20;40.39;99539.84;4482471;32;34319;-70
2021/06/26 01:57:41;;;;;;;8.02;5.53;;;;;;;29.19;40.38;99550.00;4483708;32;34765;-70
2021/06/26 02:00:09;;;;;;;7.50;5.10;;;;;;;29.20;40.46;99546.16;4482534;32;34223;-68
2021/06/26 02:02:38;;;;;;;6.35;4.97;;;;;;;29.22;40.48;99552.19;4483679;32;33904;-70
2021/06/26 02:05:07;;;;;;;7.12;5.37;;;;;;;29.26;40.48;99546.16;4483596;32;33868;-70
2021/06/26 02:07:35;;;;;;;6.72;4.82;;;;;;;29.26;40.46;99547.00;4483525;32;33837;-68
2021/06/26 02:10:04;;;;;;;7.68;5.25;;;;;;;29.27;40.44;99547.81;4483140;32;33334;-70
2021/06/26 02:12:32;;;;;;;10.02;6.37;;;;;;;29.28;40.55;99552.22;4483575;32;33868;-70
2021/06/26 02:15:00;;;;;;;8.05;5.82;;;;;;;29.30;40.61;99556.34;4483492;32;33593;-71
2021/06/26 02:17:27;;;;;;;8.23;5.30;;;;;;;29.30;40.50;99561.84;4482565;32;34012;-69
2021/06/26 02:19:55;;;;;;;8.35;5.72;;;;;;;29.30;40.54;99561.03;4482610;32;33576;-72
2021/06/26 02:22:23;;;;;;;6.60;5.45;;;;;;;29.31;40.52;99559.91;4483332;32;33710;-71
2021/06/26 02:24:50;;;;;;;7.57;5.50;;;;;;;29.33;40.61;99572.31;4483018;32;33921;-72
2021/06/26 02:27:18;;;;;;;9.20;5.43;;;;;;;29.31;40.68;99559.91;4483372;32;33900;-72
2021/06/26 02:29:45;;;;;;;9.35;5.62;;;;;;;29.34;40.67;99562.12;4483327;32;33160;-72
2021/06/26 02:32:13;;;;;;;6.43;5.10;;;;;;;29.34;40.75;99562.12;4483154;32;33840;-72
2021/06/26 02:34:40;;;;;;;6.87;5.75;;;;;;;29.34;40.68;99562.97;4482390;32;33858;-70
2021/06/26 02:37:08;;;;;;;8.20;6.03;;;;;;;29.35;40.68;99574.78;4481963;32;33756;-72
2021/06/26 02:39:36;;;;;;;8.23;5.87;;;;;;;29.37;40.77;99575.31;4483150;32;33174;-72
2021/06/26 02:42:04;;;;;;;7.12;5.65;;;;;;;29.39;40.81;99581.37;4482935;32;33876;-69
2021/06/26 02:44:32;;;;;;;8.98;6.05;;;;;;;29.37;40.84;99592.62;4483429;32;33861;-72
2021/06/26 02:46:59;;;;;;;7.28;5.70;;;;;;;29.38;40.86;99577.00;4483218;32;34536;-68
2021/06/26 02:49:27;;;;;;;7.05;5.62;;;;;;;29.38;40.90;99582.50;4484293;32;32615;-72
2021/06/26 02:51:54;;;;;;;8.07;5.82;;;;;;;29.39;40.89;99579.47;4484824;32;34734;-72
2021/06/26 02:54:22;;;;;;;7.78;5.80;;;;;;;29.39;40.89;99578.62;4484934;32;33893;-71
2021/06/26 02:56:49;;;;;;;9.43;6.47;;;;;;;29.40;40.98;99581.09;4484978;32;33770;-73
2021/06/26 02:59:17;;;;;;;8.80;5.80;;;;;;;29.41;41.02;99592.91;4484817;32;34748;-72
2021/06/26 03:01:45;;;;;;;8.20;5.53;;;;;;;29.41;41.02;99592.91;4484928;32;34575;-72
2021/06/26 03:04:12;;;;;;;12.05;6.30;;;;;;;29.41;41.01;99584.66;4485027;32;33620;-72
2021/06/26 03:06:40;;;;;;;11.40;5.95;;;;;;;29.43;41.06;99579.75;4484864;32;34204;-67
2021/06/26 03:09:08;;;;;;;8.80;5.80;;;;;;;29.42;41.07;99583.56;4484659;32;33540;-72
2021/06/26 03:11:35;;;;;;;9.80;6.28;;;;;;;29.42;41.04;99581.63;4484955;32;34014;-72
2021/06/26 03:14:03;;;;;;;7.70;5.90;;;;;;;29.42;41.08;99586.31;4484799;32;33935;-69
2021/06/26 03:16:30;;;;;;;10.60;6.35;;;;;;;29.41;41.02;99585.50;4483754;32;33046;-72
2021/06/26 03:18:58;;;;;;;7.90;5.95;;;;;;;29.43;41.06;99591.56;4485050;32;33407;-71
2021/06/26 03:21:28;;;;;;;11.57;5.85;;;;;;;29.42;41.00;99589.87;4484895;32;33663;-72
2021/06/26 03:23:56;;;;;;;8.40;5.53;;;;;;;29.42;41.06;99584.38;4484742;32;34088;-72
2021/06/26 03:26:24;;;;;;;8.18;5.90;;;;;;;29.41;41.05;99576.41;4483624;32;33798;-71
2021/06/26 03:28:51;;;;;;;10.10;5.82;;;;;;;29.40;41.00;99580.28;4485077;32;34163;-72
2021/06/26 03:31:19;;;;;;;7.57;5.72;;;;;;;29.41;41.00;99582.75;4484700;32;33653;-71
2021/06/26 03:33:47;;;;;;;9.50;4.85;;;;;;;29.41;41.10;99579.16;4484705;32;33623;-72
2021/06/26 03:36:15;;;;;;;9.43;5.47;;;;;;;29.42;41.10;99586.31;4484874;32;33540;-72
2021/06/26 03:38:42;;;;;;;8.13;5.37;;;;;;;29.42;41.11;99581.63;4484374;32;33183;-72
2021/06/26 03:41:10;;;;;;;8.95;5.78;;;;;;;29.43;41.16;99588.81;4483571;32;33834;-71
2021/06/26 03:43:38;;;;;;;10.18;5.47;;;;;;;29.44;41.09;99582.22;4483530;32;34770;-72
2021/06/26 03:46:06;;;;;;;10.75;5.82;;;;;;;29.43;41.09;99588.81;4470547;32;33537;-72
2021/06/26 03:48:33;;;;;;;8.02;5.07;;;;;;;29.45;41.04;99594.03;4484860;32;34204;-71
2021/06/26 03:51:01;;;;;;;9.52;6.32;;;;;;;29.45;41.01;99592.09;4484438;32;34333;-72
2021/06/26 03:53:29;;;;;;;9.35;5.60;;;;;;;29.47;41.15;99595.41;4484760;32;33837;-73
2021/06/26 03:55:56;;;;;;;11.18;6.03;;;;;;;29.45;41.17;99594.84;4484746;32;33934;-72
2021/06/26 03:58:25;;;;;;;8.07;5.65;;;;;;;29.46;41.10;99588.25;4484557;32;34885;-72
2021/06/26 04:00:55;;;;;;;9.85;5.75;;;;;;;29.47;41.16;99589.06;4483927;32;33706;-79
2021/06/26 04:03:25;;;;;;;;;;;;;;;29.48;41.24;99585.25;4470850;32;34906;-72
2021/06/26 04:05:53;;;;;;;8.65;5.65;;;;;;;29.60;40.94;99588.56;4484572;32;34448;-72
2021/06/26 04:08:20;;;;;;;11.63;5.87;;;;;;;29.50;41.06;99588.53;4483052;32;33267;-71
2021/06/26 04:10:48;;;;;;;12.18;6.22;;;;;;;29.47;41.08;99584.44;4484439;32;33861;-70
2021/06/26 04:13:15;;;;;;;14.60;6.32;;;;;;;29.47;41.02;99587.19;4484313;31;33825;-71
2021/06/26 04:15:43;;;;;;;8.85;5.65;;;;;;;29.46;41.01;99581.94;4484538;32;34507;-72
2021/06/26 04:18:11;;;;;;;9.30;5.72;;;;;;;29.46;40.97;99584.69;4484649;32;33361;-72
2021/06/26 04:20:39;;;;;;;9.25;5.53;;;;;;;29.46;41.09;99579.19;4484515;31;33846;-71
2021/06/26 04:23:06;;;;;;;8.82;5.72;;;;;;;29.45;41.08;99574.78;4484544;32;33848;-71
2021/06/26 04:25:34;;;;;;;11.35;5.43;;;;;;;29.46;41.15;99576.44;4484332;32;33611;-72
2021/06/26 04:28:06;;;;;;;9.68;5.87;;;;;;;29.44;40.99;99570.41;4484185;32;34347;-72
2021/06/26 04:30:36;;;;;;;8.70;4.87;;;;;;;29.43;41.01;99572.31;4484311;32;33819;-72
2021/06/26 04:33:04;;;;;;;8.68;5.18;;;;;;;29.44;40.95;99568.47;4484437;32;33804;-70
2021/06/26 04:35:32;;;;;;;6.72;5.43;;;;;;;29.43;40.92;99574.25;4484283;32;33727;-72
2021/06/26 04:37:59;;;;;;;10.70;5.90;;;;;;;29.44;40.90;99570.41;4484454;32;33858;-70
2021/06/26 04:40:27;;;;;;;7.43;5.12;;;;;;;29.44;40.88;99564.91;4483079;32;34676;-71
2021/06/26 04:42:55;;;;;;;8.27;5.60;;;;;;;29.42;40.91;99567.06;4484120;32;33598;-71
2021/06/26 04:45:23;;;;;;;8.40;5.75;;;;;;;29.43;40.87;99563.25;4484118;32;34131;-69
2021/06/26 04:47:51;;;;;;;18.45;6.65;;;;;;;29.42;40.98;99562.41;4484242;32;33538;-72
2021/06/26 04:50:18;;;;;;;17.48;7.25;;;;;;;29.45;40.95;99563.78;4483202;32;33156;-74
2021/06/26 04:52:46;;;;;;;12.90;5.85;;;;;;;29.46;41.00;99570.94;4484361;32;33868;-76
2021/06/26 04:55:14;;;;;;;8.48;5.10;;;;;;;29.47;41.04;99576.19;4482988;32;33741;-73
2021/06/26 04:57:42;;;;;;;9.05;5.65;;;;;;;29.49;41.05;99575.91;4483279;32;33405;-75
2021/06/26 05:00:10;;;;;;;10.13;6.03;;;;;;;29.49;41.06;99570.41;4484063;32;33173;-71
2021/06/26 05:02:38;;;;;;;11.07;6.10;;;;;;;29.51;41.07;99570.12;4482448;32;33893;-71
2021/06/26 05:05:05;;;;;;;13.27;5.28;;;;;;;29.52;41.08;99580.00;4481427;32;33747;-74
2021/06/26 05:07:34;;;;;;;10.82;5.78;;;;;;;29.52;41.11;99577.25;4483024;32;33300;-73
2021/06/26 05:10:03;;;;;;;10.23;5.80;;;;;;;29.53;41.12;99578.94;4483373;32;34482;-73
2021/06/26 05:12:30;;;;;;;8.93;5.60;;;;;;;29.54;41.10;99575.09;4481553;32;35110;-69
2021/06/26 05:14:58;;;;;;;7.03;5.60;;;;;;;29.55;41.12;99582.25;4482673;32;34523;-69
2021/06/26 05:17:25;;;;;;;9.80;5.75;;;;;;;29.56;41.12;99578.41;4483894;32;34192;-73
2021/06/26 05:19:53;;;;;;;12.10;6.47;;;;;;;29.56;41.11;99575.66;4484145;32;33772;-71
2021/06/26 05:22:21;;;;;;;7.50;5.47;;;;;;;29.57;41.12;99571.81;4483924;31;34225;-74
2021/06/26 05:24:48;;;;;;;8.65;5.45;;;;;;;29.56;41.13;99576.47;4484077;32;33643;-73
2021/06/26 05:27:16;;;;;;;8.82;5.78;;;;;;;29.58;41.16;99574.28;4484082;32;33182;-74
2021/06/26 05:29:44;;;;;;;11.48;6.18;;;;;;;29.58;41.18;99579.78;4483617;32;33038;-73
2021/06/26 05:32:11;;;;;;;9.77;5.53;;;;;;;29.59;41.18;99581.44;4483252;32;34681;-72
2021/06/26 05:34:40;;;;;;;10.20;5.87;;;;;;;29.59;41.18;99573.19;4482626;32;33979;-71
2021/06/26 05:37:08;;;;;;;8.25;5.80;;;;;;;29.62;41.16;99583.66;4471236;32;33972;-70
2021/06/26 05:39:36;;;;;;;9.02;5.72;;;;;;;29.61;41.23;99576.50;4481710;32;33560;-75
2021/06/26 05:42:04;;;;;;;9.73;5.93;;;;;;;29.62;41.24;99580.06;4483901;32;34523;-71
2021/06/26 05:44:31;;;;;;;11.05;5.78;;;;;;;29.61;41.26;99582.00;4483864;32;33886;-72
2021/06/26 05:46:59;;;;;;;8.85;5.60;;;;;;;29.63;41.26;99593.53;4483735;32;33414;-74
2021/06/26 05:49:27;;;;;;;7.97;5.37;;;;;;;29.64;41.27;99597.13;4483975;32;33454;-74
2021/06/26 05:51:54;;;;;;;8.68;5.35;;;;;;;29.64;41.29;99597.94;4483865;32;34569;-73
2021/06/26 05:54:22;;;;;;;7.80;5.37;;;;;;;29.65;41.30;99604.25;4483622;32;33816;-72
2021/06/26 05:56:49;;;;;;;8.98;5.05;;;;;;;29.64;41.32;99603.44;4483712;32;33288;-73
2021/06/26 05:59:17;;;;;;;10.90;4.90;;;;;;;29.65;41.33;99607.81;4483687;32;35252;-74
2021/06/26 06:01:45;;;;;;;7.82;5.53;;;;;;;29.67;41.37;99613.06;4483534;32;33570;-73
2021/06/26 06:04:13;;;;;;;8.88;5.55;;;;;;;29.65;41.40;99607.81;4483654;32;33749;-74
2021/06/26 06:06:40;;;;;;;8.32;4.95;;;;;;;29.65;41.40;99610.56;4482266;32;33269;-71
2021/06/26 06:09:08;;;;;;;8.02;5.72;;;;;;;29.65;41.42;99607.81;4483381;32;33741;-74
2021/06/26 06:11:36;;;;;;;8.57;5.72;;;;;;;29.65;41.44;99616.06;4483592;32;34670;-75
2021/06/26 06:14:03;;;;;;;10.18;5.30;;;;;;;29.66;41.45;99614.19;4483585;32;34152;-75
2021/06/26 06:16:32;;;;;;;6.82;5.45;;;;;;;29.66;41.45;99612.25;4483455;32;34806;-75
2021/06/26 06:18:59;;;;;;;7.20;5.10;;;;;;;29.67;41.48;99613.06;4483501;32;34519;-75
2021/06/26 06:21:27;;;;;;;8.98;6.10;;;;;;;29.66;41.49;99616.94;4483444;32;33925;-71
2021/06/26 06:23:55;;;;;;;7.43;4.90;;;;;;;29.66;41.53;99617.75;4482490;32;34651;-76
2021/06/26 06:26:22;;;;;;;7.05;4.75;;;;;;;29.67;41.54;99610.31;4483399;32;33229;-70
2021/06/26 06:28:50;;;;;;;6.43;5.10;;;;;;;29.66;41.57;99623.25;4483426;32;33826;-72
2021/06/26 06:31:18;;;;;;;8.80;5.30;;;;;;;29.67;41.58;99624.91;4483407;32;33745;-75
2021/06/26 06:33:45;;;;;;;7.18;5.18;;;;;;;29.66;41.61;99620.50;4471606;32;35272;-75
2021/06/26 06:36:13;;;;;;;8.30;5.25;;;;;;;29.66;41.61;99620.50;4467483;32;34010;-75
2021/06/26 06:38:40;;;;;;;7.12;5.37;;;;;;;29.67;41.66;99626.81;4467425;32;34533;-75
2021/06/26 06:41:08;;;;;;;6.85;5.22;;;;;;;29.67;41.66;99624.06;4477164;32;34661;-75
2021/06/26 06:43:36;;;;;;;6.93;5.10;;;;;;;29.66;41.67;99631.50;4483044;32;33859;-75
2021/06/26 06:46:05;;;;;;;6.50;4.87;;;;;;;29.67;41.67;99626.81;4483072;32;33192;-73
2021/06/26 06:48:33;;;;;;;;;;;;;;;29.67;41.66;99635.91;4481906;32;34036;-70
2021/06/26 06:51:00;;;;;;;8.07;5.45;;;;;;;29.79;41.40;99638.38;4481709;32;34081;-73
2021/06/26 06:53:28;;;;;;;8.02;5.60;;;;;;;29.70;41.57;99624.38;4482972;32;33879;-72
2021/06/26 06:55:58;;;;;;;6.90;4.95;;;;;;;29.68;41.64;99643.03;4482933;32;34128;-71
2021/06/26 06:58:25;;;;;;;;;;;;;;;29.68;41.67;99634.78;4483003;32;33742;-73
2021/06/26 07:00:53;;;;;;;8.13;4.85;;;;;;;29.81;41.42;99632.63;4482965;32;34250;-72
2021/06/26 07:03:21;;;;;;;7.40;5.22;;;;;;;29.70;41.62;99629.88;4481496;32;34868;-74
2021/06/26 07:05:48;;;;;;;8.23;4.95;;;;;;;29.69;41.76;99638.38;4482850;32;34038;-73
2021/06/26 07:08:16;;;;;;;5.85;4.80;;;;;;;29.70;41.81;99637.25;4482746;32;34596;-71
2021/06/26 07:10:44;;;;;;;7.87;5.03;;;;;;;29.70;41.80;99637.25;4482717;32;33866;-73
2021/06/26 07:13:11;;;;;;;6.45;4.93;;;;;;;29.70;41.81;99649.13;4482537;32;33700;-70
2021/06/26 07:15:39;;;;;;;6.47;5.00;;;;;;;29.71;41.80;99658.19;4482741;32;33189;-73
2021/06/26 07:18:07;;;;;;;6.72;5.37;;;;;;;29.71;41.81;99652.69;4482649;32;33886;-72
2021/06/26 07:20:34;;;;;;;7.00;5.20;;;;;;;29.72;41.84;99652.41;4480286;31;34730;-73
2021/06/26 07:23:02;;;;;;;6.37;5.28;;;;;;;29.74;41.85;99658.44;4481275;32;34421;-74
2021/06/26 07:25:30;;;;;;;6.25;5.10;;;;;;;29.75;41.83;99651.00;4482357;32;33387;-74
2021/06/26 07:27:58;;;;;;;7.55;5.28;;;;;;;29.76;41.83;99649.13;4482242;32;33834;-71
2021/06/26 07:30:25;;;;;;;6.97;4.95;;;;;;;29.77;41.85;99651.59;4468328;32;33249;-70
2021/06/26 07:32:53;;;;;;;6.62;4.85;;;;;;;29.78;41.83;99646.91;4482307;32;33932;-74
2021/06/26 07:35:21;;;;;;;8.00;5.55;;;;;;;29.78;41.84;99644.97;4482555;32;34046;-72
2021/06/26 07:37:48;;;;;;;6.37;5.12;;;;;;;29.79;41.83;99641.13;4484743;32;34624;-73
2021/06/26 07:40:17;;;;;;;8.32;5.05;;;;;;;29.79;41.85;99648.56;4484746;32;33717;-71
2021/06/26 07:42:45;;;;;;;6.12;5.00;;;;;;;29.81;41.84;99651.88;4484826;32;33734;-74
2021/06/26 07:45:12;;;;;;;6.53;4.55;;;;;;;29.81;41.84;99644.44;4484749;32;33327;-72
2021/06/26 07:47:40;;;;;;;5.72;4.50;;;;;;;29.82;41.86;99653.53;4484805;32;33510;-73
2021/06/26 07:50:08;;;;;;;7.15;4.87;;;;;;;29.83;41.86;99641.41;4484460;32;33833;-73
2021/06/26 07:52:36;;;;;;;6.07;4.85;;;;;;;29.83;41.86;99638.66;4484624;32;33812;-73
2021/06/26 07:55:04;;;;;;;6.10;4.78;;;;;;;29.85;41.89;99644.72;4483588;32;33494;-72
2021/06/26 07:57:32;;;;;;;7.53;5.45;;;;;;;29.85;41.87;99648.31;4483380;32;33812;-72
2021/06/26 07:59:59;;;;;;;7.28;4.68;;;;;;;29.85;41.87;99648.31;4485174;32;33924;-73
2021/06/26 08:02:27;;;;;;;6.97;4.80;;;;;;;29.85;41.88;99651.06;4484594;32;33860;-72
2021/06/26 08:04:55;;;;;;;6.53;4.62;;;;;;;29.85;41.88;99640.06;4484524;32;33455;-71
2021/06/26 08:07:23;;;;;;;7.53;4.97;;;;;;;29.86;41.91;99641.69;4484538;32;33795;-73
2021/06/26 08:09:50;;;;;;;6.32;4.68;;;;;;;29.86;41.91;99643.63;4484398;32;33944;-72
2021/06/26 08:12:18;;;;;;;7.93;4.80;;;;;;;29.86;41.91;99638.13;4484511;32;33808;-70
2021/06/26 08:14:45;;;;;;;7.20;4.45;;;;;;;29.86;41.89;99635.37;4484441;32;33330;-72
2021/06/26 08:17:13;;;;;;;7.05;4.35;;;;;;;29.87;41.92;99639.78;4483971;32;35331;-74
2021/06/26 08:19:41;;;;;;;6.40;4.75;;;;;;;29.87;41.92;99640.59;4484247;32;34979;-73
2021/06/26 08:22:09;;;;;;;6.20;4.78;;;;;;;29.87;41.94;99645.28;4484462;31;34781;-74
2021/06/26 08:24:36;;;;;;;5.72;4.62;;;;;;;29.87;41.95;99639.78;4484444;32;33477;-74
2021/06/26 08:27:04;;;;;;;6.00;4.68;;;;;;;29.88;41.95;99639.47;4483026;32;33784;-73
2021/06/26 08:29:32;;;;;;;6.95;4.70;;;;;;;29.88;41.95;99642.22;4483203;32;34600;-74
2021/06/26 08:32:00;;;;;;;6.40;4.78;;;;;;;29.88;41.97;99633.97;4484466;32;33826;-74
2021/06/26 08:34:28;;;;;;;7.22;4.35;;;;;;;29.88;41.98;99630.41;4484248;32;33021;-72
2021/06/26 08:36:56;;;;;;;6.10;4.35;;;;;;;29.89;41.99;99637.56;4484311;32;33885;-74
2021/06/26 08:39:23;;;;;;;6.60;4.85;;;;;;;29.88;42.00;99635.91;4484324;32;33830;-73
2021/06/26 08:41:51;;;;;;;5.93;4.25;;;;;;;29.88;42.00;99633.16;4484391;32;34712;-73
2021/06/26 08:44:19;;;;;;;5.65;4.45;;;;;;;29.88;42.01;99639.47;4483158;32;34002;-74
2021/06/26 08:46:49;;;;;;;6.18;4.80;;;;;;;29.88;42.02;99633.97;4483831;32;33810;-72
2021/06/26 08:49:17;;;;;;;7.12;4.72;;;;;;;29.89;42.04;99637.56;4483232;32;34000;-73
2021/06/26 08:51:45;;;;;;;6.20;4.70;;;;;;;29.88;42.04;99630.41;4484225;32;34066;-71
2021/06/26 08:54:14;;;;;;;6.05;4.50;;;;;;;29.88;42.04;99641.41;4484045;32;34240;-74
2021/06/26 08:56:42;;;;;;;5.93;4.50;;;;;;;29.88;42.04;99633.97;4484349;32;34532;-73
2021/06/26 08:59:10;;;;;;;6.22;4.75;;;;;;;29.90;42.02;99636.47;4484296;32;33946;-74
2021/06/26 09:01:38;;;;;;;6.62;4.45;;;;;;;29.89;42.04;99629.31;4482909;32;34369;-74
2021/06/26 09:04:08;;;;;;;5.40;4.43;;;;;;;29.88;42.05;99631.22;4484133;32;34061;-74
2021/06/26 09:06:59;;;;;;;6.05;4.70;;;;;;;29.88;42.06;99628.47;4482942;32;33768;-73
2021/06/26 09:09:34;;;;;;;5.10;4.10;;;;;;;29.93;42.00;99625.72;4476655;32;33571;-71
2021/06/26 09:12:03;;;;;;;5.57;4.32;;;;;;;29.89;42.08;99629.31;4482768;32;34631;-73
2021/06/26 09:14:32;;;;;;;5.17;3.93;;;;;;;29.89;42.06;99626.56;4482960;32;33432;-74
2021/06/26 09:16:59;;;;;;;7.28;4.80;;;;;;;29.89;42.05;99612.81;4483961;32;34339;-73
2021/06/26 09:19:28;;;;;;;6.68;4.80;;;;;;;29.89;42.08;99612.81;4482685;32;33943;-71
2021/06/26 09:22:07;;;;;;;6.05;4.55;;;;;;;29.88;42.11;99617.47;4470052;32;33834;-74
2021/06/26 09:24:39;;;;;;;5.85;4.53;;;;;;;29.90;42.10;99617.22;4483064;32;32990;-74
2021/06/26 09:27:07;;;;;;;5.97;4.72;;;;;;;29.89;42.12;99618.31;4484157;32;33586;-72
2021/06/26 09:29:35;;;;;;;5.40;4.35;;;;;;;29.88;42.13;99614.72;4484146;32;34901;-74
2021/06/26 09:32:04;;;;;;;6.18;4.65;;;;;;;29.90;42.12;99614.47;4482723;32;33797;-70
2021/06/26 09:34:36;;;;;;;;;;;;;;;29.88;42.13;99619.41;4484400;32;33023;-74
2021/06/26 09:37:04;;;;;;;5.57;4.22;;;;;;;30.01;41.85;99607.88;4483996;32;34024;-74
2021/06/26 09:39:43;;;;;;;5.40;4.40;;;;;;;29.91;42.05;99613.37;4483879;32;33911;-72
2021/06/26 09:42:20;;;;;;;5.60;4.43;;;;;;;29.91;42.10;99613.37;4482662;32;33724;-73
2021/06/26 09:44:57;;;;;;;5.78;4.25;;;;;;;29.87;42.17;99610.34;4482635;32;33465;-75
2021/06/26 09:47:28;;;;;;;5.90;4.28;;;;;;;29.87;42.17;99615.84;4483961;32;33618;-75
2021/06/26 09:50:14;;;;;;;5.10;3.92;;;;;;;29.88;42.18;99611.16;4483866;32;34474;-72
2021/06/26 09:52:52;;;;;;;6.57;4.07;;;;;;;29.91;42.15;99607.88;4483902;32;34731;-71
2021/06/26 09:55:24;;;;;;;5.62;4.18;;;;;;;29.88;42.16;99614.72;4483153;32;33002;-72
2021/06/26 09:57:53;;;;;;;6.68;4.55;;;;;;;29.87;42.24;99612.25;4482537;32;33923;-73
2021/06/26 10:00:23;;;;;;;6.03;4.40;;;;;;;29.87;42.20;99618.59;4483145;32;33936;-75
2021/06/26 10:02:51;;;;;;;6.03;4.18;;;;;;;29.88;42.17;99613.91;4482062;32;33741;-73
2021/06/26 10:05:18;;;;;;;5.35;4.10;;;;;;;29.89;42.19;99610.06;4483524;32;33965;-74
2021/06/26 10:07:48;;;;;;;6.20;4.37;;;;;;;29.89;42.23;99610.06;4483678;32;33149;-72
2021/06/26 10:10:17;;;;;;;6.37;4.47;;;;;;;29.88;42.24;99609.22;4483399;32;34696;-72
2021/06/26 10:12:44;;;;;;;6.30;4.32;;;;;;;29.90;42.21;99603.47;4482339;32;33607;-74
2021/06/26 10:15:12;;;;;;;5.40;4.18;;;;;;;29.89;42.19;99604.53;4483531;32;33301;-71
2021/06/26 10:17:40;;;;;;;5.60;4.20;;;;;;;29.90;42.20;99603.47;4483576;32;34770;-75
2021/06/26 10:20:12;;;;;;;6.12;4.07;;;;;;;29.88;42.24;99600.16;4483461;32;33850;-75
2021/06/26 10:22:48;;;;;;;5.55;4.53;;;;;;;29.89;42.24;99599.03;4469287;32;33730;-74
2021/06/26 10:25:15;;;;;;;5.60;4.25;;;;;;;29.90;42.20;99601.53;4482243;32;34325;-74
2021/06/26 10:27:43;;;;;;;6.32;4.00;;;;;;;29.90;42.22;99601.53;4482308;32;34728;-75
2021/06/26 10:30:21;;;;;;;6.18;4.15;;;;;;;29.90;42.23;99607.03;4483249;32;33917;-75
2021/06/26 10:32:55;;;;;;;5.30;4.10;;;;;;;29.90;42.18;99596.03;4483249;32;34943;-73
2021/06/26 10:35:24;;;;;;;5.43;4.30;;;;;;;29.89;42.23;99593.53;4482239;32;34305;-76
2021/06/26 10:38:05;;;;;;;5.53;3.70;;;;;;;29.88;42.26;99589.97;4469351;32;33943;-75
2021/06/26 10:40:47;;;;;;;5.47;4.18;;;;;;;29.91;42.20;99607.88;4483093;32;33836;-75
2021/06/26 10:43:26;;;;;;;5.53;3.90;;;;;;;29.91;42.23;99600.44;4482069;32;33767;-73
2021/06/26 10:46:07;;;;;;;5.43;4.60;;;;;;;29.91;42.22;99599.63;4483033;32;33280;-75
2021/06/26 10:49:02;;;;;;;5.80;4.20;;;;;;;29.91;42.22;99605.94;4483013;32;34744;-73
2021/06/26 10:51:33;;;;;;;5.32;3.70;;;;;;;29.91;42.24;99610.63;4483051;32;33717;-74
2021/06/26 10:54:17;;;;;;;5.03;3.97;;;;;;;29.89;42.29;99605.41;4482868;32;34603;-74
2021/06/26 10:56:47;;;;;;;6.28;4.20;;;;;;;29.90;42.25;99593.28;4483055;32;34074;-74
2021/06/26 10:59:18;;;;;;;5.55;4.55;;;;;;;29.89;42.31;99602.66;4482829;32;34958;-73
2021/06/26 11:02:00;;;;;;;5.20;4.35;;;;;;;29.89;42.29;99596.28;4481873;32;34762;-74
2021/06/26 11:04:28;;;;;;;5.05;4.07;;;;;;;29.91;42.30;99605.94;4481470;32;34724;-71
2021/06/26 11:07:06;;;;;;;5.22;3.87;;;;;;;29.90;42.34;99608.97;4482728;32;34444;-73
2021/06/26 11:09:37;;;;;;;5.53;3.95;;;;;;;29.91;42.31;99607.88;4483056;32;33849;-71
2021/06/26 11:12:09;;;;;;;5.28;4.03;;;;;;;29.89;42.35;99605.41;4484734;32;33854;-70
2021/06/26 11:14:52;;;;;;;6.25;4.00;;;;;;;29.89;42.39;99597.16;4484877;32;33798;-72
2021/06/26 11:17:22;;;;;;;5.68;4.00;;;;;;;29.92;42.35;99598.50;4485156;32;34163;-74
2021/06/26 11:19:50;;;;;;;6.03;4.35;;;;;;;29.91;42.33;99599.63;4483890;32;34955;-75
2021/06/26 11:22:17;;;;;;;5.37;4.03;;;;;;;29.90;42.29;99590.53;4484938;32;33960;-74
2021/06/26 11:25:00;;;;;;;5.45;3.97;;;;;;;29.91;42.37;99599.63;4484834;32;33815;-74
2021/06/26 11:27:27;;;;;;;5.65;4.15;;;;;;;29.90;42.35;99587.78;4484920;32;34711;-72
2021/06/26 11:30:04;;;;;;;4.78;4.00;;;;;;;29.90;42.32;99585.03;4484874;32;33778;-74
2021/06/26 11:32:32;;;;;;;5.40;4.40;;;;;;;29.92;42.31;99582.81;4483761;32;33573;-74
2021/06/26 11:35:00;;;;;;;6.30;4.40;;;;;;;29.90;42.32;99584.22;4484884;32;33738;-73
2021/06/26 11:37:42;;;;;;;4.82;3.72;;;;;;;29.90;42.33;99585.03;4483450;32;34255;-75
2021/06/26 11:40:13;;;;;;;5.10;3.17;;;;;;;29.92;42.29;99585.56;4484816;32;33743;-74
2021/06/26 11:42:44;;;;;;;5.05;3.85;;;;;;;29.91;42.37;99588.63;4484691;32;34541;-74